createdAt,value
2022-12-19T00:00:32.432Z,94917.34
2022-12-19T00:03:00.245Z,94916.53
2022-12-19T00:05:27.722Z,94923.03
2022-12-19T00:07:55.055Z,94928.44
2022-12-19T00:10:22.649Z,94926.38
2022-12-19T00:12:50.099Z,94932.22
2022-12-19T00:15:17.862Z,94940.53
2022-12-19T00:17:45.535Z,94940.63
2022-12-19T00:20:12.877Z,94950.56
2022-12-19T00:22:43.291Z,94949.03
2022-12-19T00:25:11.179Z,94951.03
2022-12-19T00:27:38.477Z,94956.66
2022-12-19T00:30:06.259Z,94945.13
2022-12-19T00:32:33.899Z,94939.31
2022-12-19T00:35:01.194Z,94955.34
2022-12-19T00:37:29.262Z,94960.25
2022-12-19T00:39:56.813Z,94962.28
2022-12-19T00:42:24.136Z,94957.38
2022-12-19T00:44:51.518Z,94955.19
2022-12-19T00:47:19.254Z,94955.84
2022-12-19T00:49:46.730Z,94957.22
2022-12-19T00:52:17.050Z,94959.72
2022-12-19T00:54:44.650Z,94960.66
2022-12-19T00:57:12.303Z,94968.00
2022-12-19T00:59:40.939Z,94963.25
2022-12-19T01:02:08.667Z,94971.37
2022-12-19T01:04:41.317Z,94957.78
2022-12-19T01:07:11.070Z,94958.31
2022-12-19T01:09:38.545Z,94962.16
2022-12-19T01:12:25.321Z,94965.66
2022-12-19T01:15:04.622Z,94964.59
2022-12-19T01:17:44.312Z,94955.59
2022-12-19T01:20:29.756Z,94963.22
2022-12-19T01:23:00.188Z,94962.94
2022-12-19T01:25:28.558Z,94974.25
2022-12-19T01:27:57.322Z,94972.84
2022-12-19T01:30:24.967Z,94967.28
2022-12-19T01:32:53.764Z,94973.25
2022-12-19T01:35:21.850Z,94967.31
2022-12-19T01:37:54.855Z,94966.75
2022-12-19T01:40:36.578Z,94967.84
2022-12-19T01:43:04.498Z,94966.50
2022-12-19T01:45:37.416Z,94975.44
2022-12-19T01:48:16.584Z,94973.81
2022-12-19T01:51:01.371Z,94978.41
2022-12-19T01:53:48.466Z,94969.75
2022-12-19T01:56:18.510Z,94971.91
2022-12-19T01:58:49.336Z,94967.31
2022-12-19T02:01:18.527Z,94962.69
2022-12-19T02:03:47.368Z,94961.59
2022-12-19T02:06:15.350Z,94961.88
2022-12-19T02:08:46.450Z,94962.44
2022-12-19T02:11:16.599Z,94958.88
2022-12-19T02:13:48.763Z,94968.13
2022-12-19T02:16:42.252Z,94957.00
2022-12-19T02:19:19.806Z,94950.50
2022-12-19T02:22:16.112Z,94952.12
2022-12-19T02:25:22.763Z,94957.41
2022-12-19T02:28:28.375Z,94959.44
2022-12-19T02:31:22.086Z,94959.03
2022-12-19T02:34:10.246Z,94966.06
2022-12-19T02:37:04.265Z,94963.09
2022-12-19T02:39:51.057Z,94966.38
2022-12-19T02:42:42.114Z,94953.19
2022-12-19T02:45:22.758Z,94968.00
2022-12-19T02:48:03.317Z,94974.62
2022-12-19T02:50:41.837Z,94973.69
2022-12-19T02:53:11.623Z,94973.25
2022-12-19T02:55:51.183Z,94974.62
2022-12-19T02:58:35.168Z,94975.44
2022-12-19T03:01:21.972Z,94971.75
2022-12-19T03:04:08.804Z,94976.28
2022-12-19T03:07:05.885Z,94977.63
2022-12-19T03:09:59.737Z,94971.37
2022-12-19T03:12:36.883Z,94963.37
2022-12-19T03:15:05.267Z,94966.22
2022-12-19T03:17:39.201Z,94963.09
2022-12-19T03:20:14.715Z,94962.69
2022-12-19T03:22:42.557Z,94955.66
2022-12-19T03:25:09.961Z,94957.91
2022-12-19T03:27:39.845Z,94952.63
2022-12-19T03:30:10.975Z,94960.12
2022-12-19T03:32:41.739Z,94952.53
2022-12-19T03:35:19.342Z,94950.19
2022-12-19T03:37:50.121Z,94960.12
2022-12-19T03:40:20.468Z,94965.13
2022-12-19T03:43:08.656Z,94969.34
2022-12-19T03:45:44.350Z,94969.75
2022-12-19T03:48:19.568Z,94966.62
2022-12-19T03:50:57.947Z,94977.06
2022-12-19T03:53:38.496Z,94971.50
2022-12-19T03:56:22.570Z,94978.31
2022-12-19T03:58:57.884Z,94975.44
2022-12-19T04:01:28.056Z,94973.00
2022-12-19T04:03:59.028Z,94976.81
2022-12-19T04:06:30.709Z,94986.16
2022-12-19T04:09:00.141Z,94980.75
2022-12-19T04:11:34.435Z,94989.56
2022-12-19T04:14:08.711Z,95000.97
2022-12-19T04:16:48.893Z,94990.66
2022-12-19T04:19:25.144Z,94993.63
2022-12-19T04:22:00.372Z,95007.88
2022-12-19T04:24:33.532Z,95006.25
2022-12-19T04:27:03.597Z,95006.75
2022-12-19T04:29:34.397Z,95006.91
2022-12-19T04:32:07.138Z,95010.19
2022-12-19T04:34:36.868Z,95014.50
2022-12-19T04:37:07.638Z,95022.94
2022-12-19T04:39:35.333Z,95017.25
2022-12-19T04:42:02.612Z,95019.97
2022-12-19T04:44:30.150Z,95021.72
2022-12-19T04:46:57.773Z,95017.63
2022-12-19T04:49:25.213Z,95015.47
2022-12-19T04:51:52.550Z,95011.94
2022-12-19T04:54:20.360Z,95015.06
2022-12-19T04:56:47.667Z,95009.22
2022-12-19T04:59:15.110Z,95016.97
2022-12-19T05:01:42.942Z,95011.69
2022-12-19T05:04:10.393Z,95018.34
2022-12-19T05:06:39.275Z,95024.28
2022-12-19T05:09:07.048Z,95035.84
2022-12-19T05:11:35.133Z,95034.75
2022-12-19T05:14:02.845Z,95036.25
2022-12-19T05:16:30.741Z,95038.69
2022-12-19T05:18:58.190Z,95038.81
2022-12-19T05:21:25.502Z,95033.53
2022-12-19T05:23:53.320Z,95037.31
2022-12-19T05:26:21.007Z,95036.12
2022-12-19T05:28:49.133Z,95040.06
2022-12-19T05:31:20.182Z,95039.75
2022-12-19T05:33:48.778Z,95032.56
2022-12-19T05:36:17.676Z,95033.00
2022-12-19T05:38:45.407Z,95036.53
2022-12-19T05:41:18.441Z,95043.97
2022-12-19T05:43:50.723Z,95051.19
2022-12-19T05:46:18.572Z,95038.03
2022-12-19T05:48:46.384Z,95038.81
2022-12-19T05:51:14.716Z,95039.91
2022-12-19T05:53:42.242Z,95044.66
2022-12-19T05:56:15.975Z,95037.72
2022-12-19T05:58:45.220Z,95052.81
2022-12-19T06:01:16.283Z,95038.13
2022-12-19T06:03:44.812Z,95051.56
2022-12-19T06:06:19.255Z,95047.09
2022-12-19T06:08:47.847Z,95050.78
2022-12-19T06:11:15.589Z,95052.41
2022-12-19T06:13:43.094Z,95059.31
2022-12-19T06:16:13.770Z,95051.97
2022-12-19T06:18:44.783Z,95057.66
2022-12-19T06:21:21.057Z,95062.81
2022-12-19T06:23:48.919Z,95058.59
2022-12-19T06:26:20.083Z,95064.22
2022-12-19T06:28:49.158Z,95072.06
2022-12-19T06:31:17.415Z,95072.03
2022-12-19T06:33:44.996Z,95070.94
2022-12-19T06:36:18.409Z,95076.97
2022-12-19T06:38:46.184Z,95079.16
2022-12-19T06:41:32.476Z,95079.53
2022-12-19T06:44:01.489Z,95079.41
2022-12-19T06:46:30.150Z,95083.75
2022-12-19T06:48:57.507Z,95083.06
2022-12-19T06:51:25.534Z,95086.50
2022-12-19T06:53:53.153Z,95093.00
2022-12-19T06:56:20.583Z,95093.00
2022-12-19T06:58:48.384Z,95091.91
2022-12-19T07:01:25.815Z,95086.59
2022-12-19T07:03:54.418Z,95098.69
2022-12-19T07:06:22.582Z,95101.13
2022-12-19T07:08:49.927Z,95107.94
2022-12-19T07:11:18.307Z,95113.34
2022-12-19T07:13:45.643Z,95111.44
2022-12-19T07:16:13.154Z,95114.84
2022-12-19T07:18:41.957Z,95115.53
2022-12-19T07:21:14.210Z,95117.16
2022-12-19T07:23:42.178Z,95120.03
2022-12-19T07:26:09.651Z,95113.63
2022-12-19T07:28:38.089Z,95122.63
2022-12-19T07:31:06.029Z,95122.31
2022-12-19T07:33:34.020Z,95126.41
2022-12-19T07:36:01.369Z,95124.72
2022-12-19T07:38:29.048Z,95127.59
2022-12-19T07:40:56.404Z,95130.69
2022-12-19T07:43:23.966Z,95126.62
2022-12-19T07:45:55.697Z,95123.31
2022-12-19T07:48:23.671Z,95125.25
2022-12-19T07:50:51.030Z,95133.13
2022-12-19T07:53:18.690Z,95138.87
2022-12-19T07:55:46.068Z,95148.75
2022-12-19T07:58:16.171Z,95146.47
2022-12-19T08:00:43.981Z,95153.56
2022-12-19T08:03:11.826Z,95154.47
2022-12-19T08:05:39.396Z,95163.97
2022-12-19T08:08:06.769Z,95168.63
2022-12-19T08:10:34.513Z,95172.03
2022-12-19T08:13:01.852Z,95176.34
2022-12-19T08:15:29.252Z,95180.00
2022-12-19T08:17:56.993Z,95175.41
2022-12-19T08:20:24.442Z,95176.37
2022-12-19T08:22:51.761Z,95177.31
2022-12-19T08:25:19.412Z,95178.31
2022-12-19T08:27:46.801Z,95179.84
2022-12-19T08:30:14.675Z,95180.72
2022-12-19T08:32:42.745Z,95184.78
2022-12-19T08:35:10.063Z,95186.97
2022-12-19T08:37:37.579Z,95189.03
2022-12-19T08:40:05.776Z,95189.16
2022-12-19T08:42:33.806Z,95189.03
2022-12-19T08:45:01.211Z,95190.78
2022-12-19T08:47:28.998Z,95188.75
2022-12-19T08:49:57.248Z,95182.91
2022-12-19T08:52:24.997Z,95182.09
2022-12-19T08:54:52.659Z,95178.53
2022-12-19T08:57:20.104Z,95180.47
2022-12-19T08:59:47.402Z,95168.91
2022-12-19T09:02:16.417Z,95162.94
2022-12-19T09:06:02.217Z,95165.12
2022-12-19T09:07:31.629Z,95163.34
2022-12-19T09:10:01.646Z,95164.44
2022-12-19T09:12:29.040Z,95171.75
2022-12-19T09:14:56.684Z,95166.44
2022-12-19T09:17:23.995Z,95157.06
2022-12-19T09:19:52.191Z,95158.28
2022-12-19T09:22:21.174Z,95157.97
2022-12-19T09:24:56.328Z,95151.22
2022-12-19T09:27:24.595Z,95153.75
2022-12-19T09:29:52.060Z,95148.09
2022-12-19T09:32:19.346Z,95148.06
2022-12-19T09:34:47.035Z,95141.84
2022-12-19T09:37:16.356Z,95136.44
2022-12-19T09:39:46.526Z,95129.94
2022-12-19T09:42:20.465Z,95119.16
2022-12-19T09:45:03.026Z,95116.06
2022-12-19T09:47:32.681Z,95108.88
2022-12-19T09:50:01.383Z,95108.59
2022-12-19T09:52:43.570Z,95110.25
2022-12-19T09:55:11.528Z,95100.72
2022-12-19T09:57:55.858Z,95094.47
2022-12-19T10:00:34.848Z,95101.41
2022-12-19T10:03:12.865Z,95095.44
2022-12-19T10:06:55.877Z,95086.75
2022-12-19T10:09:09.995Z,95084.69
2022-12-19T10:12:40.990Z,95079.94
2022-12-19T10:15:26.341Z,95082.53
2022-12-19T10:18:26.893Z,95079.81
2022-12-19T10:21:12.030Z,95069.22
2022-12-19T10:23:47.920Z,95073.12
2022-12-19T10:26:34.544Z,95065.69
2022-12-19T10:29:30.267Z,95066.50
2022-12-19T10:32:10.139Z,95070.41
2022-12-19T10:34:44.363Z,95064.41
2022-12-19T10:37:45.682Z,95058.59
2022-12-19T10:40:32.319Z,95056.69
2022-12-19T10:43:07.900Z,95047.78
2022-12-19T10:45:47.009Z,95036.28
2022-12-19T10:48:21.279Z,95043.00
2022-12-19T10:50:54.324Z,95034.69
2022-12-19T10:53:29.954Z,95040.13
2022-12-19T10:56:10.217Z,95035.22
2022-12-19T10:58:38.636Z,95027.22
2022-12-19T11:01:22.287Z,95030.47
2022-12-19T11:04:19.024Z,95032.41
2022-12-19T11:07:07.735Z,95033.53
2022-12-19T11:09:40.813Z,95024.69
2022-12-19T11:16:35.579Z,95032.16
2022-12-19T11:22:42.465Z,95024.37
2022-12-19T11:28:03.334Z,95031.25
2022-12-19T11:29:27.192Z,95033.41
2022-12-19T11:30:39.551Z,95019.41
2022-12-19T11:30:43.170Z,95023.87
2022-12-19T11:32:45.328Z,95022.53
2022-12-19T11:35:16.310Z,95017.94
2022-12-19T11:37:55.201Z,95019.25
2022-12-19T11:40:33.378Z,95016.72
2022-12-19T11:46:29.784Z,95025.94
2022-12-19T11:49:01.765Z,95023.94
2022-12-19T11:51:46.039Z,95027.94
2022-12-19T11:54:22.664Z,95023.81
2022-12-19T11:56:50.751Z,95030.91
2022-12-19T11:59:27.520Z,95028.84
2022-12-19T12:02:09.822Z,95029.06
2022-12-19T12:04:56.146Z,95016.84
2022-12-19T12:07:43.972Z,95019.28
2022-12-19T12:14:57.445Z,95026.59
2022-12-19T12:20:17.644Z,95018.88
2022-12-19T12:24:58.820Z,95023.94
2022-12-19T12:31:07.270Z,95019.84
2022-12-19T12:31:07.829Z,95023.87
2022-12-19T12:31:18.719Z,95022.31
2022-12-19T12:31:57.408Z,95032.09
2022-12-19T12:35:46.221Z,95031.09
2022-12-19T12:40:40.076Z,95041.38
2022-12-19T12:43:42.285Z,95041.41
2022-12-19T12:46:20.342Z,95045.88
2022-12-19T12:49:02.050Z,95053.06
2022-12-19T12:51:33.300Z,95053.34
2022-12-19T12:54:07.730Z,95056.47
2022-12-19T12:56:37.235Z,95057.66
2022-12-19T12:59:25.469Z,95053.34
2022-12-19T13:02:00.699Z,95050.75
2022-12-19T13:04:31.758Z,95059.31
2022-12-19T13:07:13.936Z,95051.97
2022-12-19T13:09:42.264Z,95046.97
2022-12-19T13:12:46.376Z,95042.50
2022-12-19T13:15:27.563Z,95043.97
2022-12-19T13:17:55.217Z,95043.97
2022-12-19T13:20:27.600Z,95055.94
2022-12-19T13:22:58.755Z,95059.72
2022-12-19T13:25:36.651Z,95045.22
2022-12-19T13:28:04.332Z,95037.97
2022-12-19T13:30:54.289Z,95040.69
2022-12-19T13:33:20.868Z,95046.53
2022-12-19T13:39:04.815Z,95053.44
2022-12-19T13:39:58.210Z,95065.03
2022-12-19T13:42:01.644Z,95065.56
2022-12-19T13:44:36.952Z,95073.69
2022-12-19T13:47:06.542Z,95077.50
2022-12-19T13:49:35.499Z,95071.00
2022-12-19T13:52:04.908Z,95078.19
2022-12-19T13:54:36.898Z,95079.81
2022-12-19T13:57:19.194Z,95076.81
2022-12-19T13:59:59.660Z,95078.16
2022-12-19T14:02:44.748Z,95081.56
2022-12-19T14:05:30.613Z,95086.59
2022-12-19T14:08:13.359Z,95083.63
2022-12-19T14:11:41.683Z,95078.75
2022-12-19T14:14:10.747Z,95083.22
2022-12-19T14:16:46.004Z,95084.53
2022-12-19T14:19:28.037Z,95077.75
2022-12-19T14:22:15.786Z,95081.69
2022-12-19T14:25:50.144Z,95093.53
2022-12-19T14:28:19.732Z,95089.72
2022-12-19T14:30:46.155Z,95087.97
2022-12-19T14:33:43.987Z,95098.69
2022-12-19T14:36:14.764Z,95100.31
2022-12-19T14:39:23.670Z,95099.09
2022-12-19T14:42:08.827Z,95094.19
2022-12-19T14:52:26.128Z,95090.28
2022-12-19T14:52:35.814Z,95097.47
2022-12-19T14:54:16.637Z,95101.00
2022-12-19T14:54:21.294Z,95096.41
2022-12-19T14:59:01.825Z,95099.09
2022-12-19T15:01:36.481Z,95084.56
2022-12-19T15:04:52.764Z,95077.50
2022-12-19T15:07:08.951Z,95092.03
2022-12-19T15:11:06.266Z,95087.00
2022-12-19T15:14:47.963Z,95077.22
2022-12-19T15:16:02.433Z,95079.13
2022-12-19T15:18:33.092Z,95072.34
2022-12-19T15:21:02.988Z,95072.22
2022-12-19T15:23:31.542Z,95072.63
2022-12-19T15:26:07.050Z,95070.56
2022-12-19T15:28:55.730Z,95069.34
2022-12-19T15:31:36.533Z,95075.31
2022-12-19T15:34:48.393Z,95080.72
2022-12-19T15:37:16.482Z,95075.34
2022-12-19T15:39:45.091Z,95077.75
2022-12-19T15:42:20.205Z,95077.44
2022-12-19T15:44:49.523Z,95079.50
2022-12-19T15:47:32.025Z,95082.63
2022-12-19T15:50:03.017Z,95086.56
2022-12-19T15:52:30.384Z,95089.34
2022-12-19T15:54:57.684Z,95097.38
2022-12-19T15:57:36.562Z,95093.72
2022-12-19T16:00:07.989Z,95099.72
2022-12-19T16:03:20.639Z,95094.84
2022-12-19T16:05:26.281Z,95106.66
2022-12-19T16:07:54.336Z,95100.84
2022-12-19T16:10:22.176Z,95097.00
2022-12-19T16:12:53.281Z,95090.63
2022-12-19T16:15:30.225Z,95092.53
2022-12-19T16:17:59.304Z,95096.06
2022-12-19T16:20:28.207Z,95087.81
2022-12-19T16:22:55.814Z,95089.28
2022-12-19T16:25:29.868Z,95084.94
2022-12-19T16:27:59.563Z,95098.09
2022-12-19T16:30:28.932Z,95101.19
2022-12-19T16:32:56.223Z,95095.38
2022-12-19T16:35:54.893Z,95104.00
2022-12-19T16:38:13.237Z,95102.09
2022-12-19T16:40:41.452Z,95097.06
2022-12-19T16:43:27.024Z,95105.22
2022-12-19T16:46:00.555Z,95111.34
2022-12-19T16:48:32.266Z,95104.03
2022-12-19T16:51:00.294Z,95106.91
2022-12-19T16:53:28.037Z,95101.88
2022-12-19T16:55:57.279Z,95096.06
2022-12-19T16:58:27.667Z,95104.56
2022-12-19T17:00:56.810Z,95102.56
2022-12-19T17:03:41.928Z,95103.50
2022-12-19T17:06:18.360Z,95113.81
2022-12-19T17:08:46.688Z,95112.62
2022-12-19T17:11:22.483Z,95113.03
2022-12-19T17:13:53.611Z,95112.00
2022-12-19T17:16:21.410Z,95113.97
2022-12-19T17:18:49.311Z,95123.25
2022-12-19T17:21:22.164Z,95127.03
2022-12-19T17:23:50.855Z,95114.22
2022-12-19T17:26:18.815Z,95121.16
2022-12-19T17:28:48.449Z,95120.09
2022-12-19T17:31:26.106Z,95117.66
2022-12-19T17:33:58.055Z,95116.50
2022-12-19T17:36:32.642Z,95109.66
2022-12-19T17:39:21.897Z,95104.25
2022-12-19T17:41:50.726Z,95107.44
2022-12-19T17:44:19.051Z,95108.75
2022-12-19T17:46:48.856Z,95108.37
2022-12-19T17:49:21.142Z,95110.72
2022-12-19T17:51:52.524Z,95118.72
2022-12-19T17:54:21.134Z,95116.47
2022-12-19T17:56:50.636Z,95121.53
2022-12-19T17:59:18.076Z,95116.28
2022-12-19T18:01:49.341Z,95120.16
2022-12-19T18:04:21.814Z,95118.94
2022-12-19T18:06:49.530Z,95106.50
2022-12-19T18:09:22.424Z,95112.09
2022-12-19T18:11:50.949Z,95113.44
2022-12-19T18:14:20.003Z,95119.09
2022-12-19T18:16:49.969Z,95113.75
2022-12-19T18:19:24.683Z,95116.81
2022-12-19T18:21:52.684Z,95129.91
2022-12-19T18:24:20.473Z,95119.09
2022-12-19T18:26:47.983Z,95122.91
2022-12-19T18:29:16.837Z,95122.63
2022-12-19T18:31:50.409Z,95126.81
2022-12-19T18:34:23.111Z,95121.66
2022-12-19T18:36:51.872Z,95134.06
2022-12-19T18:39:26.193Z,95125.06
2022-12-19T18:41:54.814Z,95130.69
2022-12-19T18:44:23.228Z,95132.50
2022-12-19T18:46:52.188Z,95124.19
2022-12-19T18:49:19.924Z,95133.22
2022-12-19T18:51:49.149Z,95137.63
2022-12-19T18:54:22.442Z,95130.84
2022-12-19T18:56:50.207Z,95132.97
2022-12-19T18:59:17.534Z,95137.16
2022-12-19T19:01:47.056Z,95126.34
2022-12-19T19:04:18.216Z,95128.00
2022-12-19T19:06:51.769Z,95137.22
2022-12-19T19:09:21.308Z,95136.72
2022-12-19T19:11:49.639Z,95138.16
2022-12-19T19:14:18.151Z,95141.13
2022-12-19T19:16:46.298Z,95143.69
2022-12-19T19:19:18.573Z,95146.13
2022-12-19T19:21:46.532Z,95149.91
2022-12-19T19:24:20.832Z,95149.22
2022-12-19T19:26:49.656Z,95151.56
2022-12-19T19:29:19.161Z,95150.22
2022-12-19T19:31:49.719Z,95152.94
2022-12-19T19:34:23.377Z,95149.97
2022-12-19T19:36:54.975Z,95152.41
2022-12-19T19:39:23.559Z,95151.09
2022-12-19T19:41:51.090Z,95157.69
2022-12-19T19:44:18.473Z,95153.34
2022-12-19T19:46:46.296Z,95155.00
2022-12-19T19:49:13.748Z,95156.38
2022-12-19T19:51:41.384Z,95163.19
2022-12-19T19:54:09.157Z,95168.91
2022-12-19T19:56:36.551Z,95173.81
2022-12-19T19:59:04.021Z,95175.03
2022-12-19T20:01:32.329Z,95180.44
2022-12-19T20:04:00.297Z,95171.00
2022-12-19T20:06:27.782Z,95169.59
2022-12-19T20:08:55.071Z,95168.00
2022-12-19T20:11:22.780Z,95180.59
2022-12-19T20:13:50.126Z,95168.37
2022-12-19T20:16:19.359Z,95172.09
2022-12-19T20:18:52.075Z,95171.72
2022-12-19T20:21:20.970Z,95168.09
2022-12-19T20:23:48.699Z,95161.25
2022-12-19T20:26:17.498Z,95159.56
2022-12-19T20:28:49.323Z,95169.19
2022-12-19T20:31:23.297Z,95169.69
2022-12-19T20:33:53.308Z,95164.44
2022-12-19T20:36:21.702Z,95156.66
2022-12-19T20:38:50.221Z,95156.41
2022-12-19T20:41:18.610Z,95157.56
2022-12-19T20:43:46.394Z,95151.53
2022-12-19T20:46:19.143Z,95151.38
2022-12-19T20:48:48.295Z,95145.87
2022-12-19T20:51:17.525Z,95143.19
2022-12-19T20:53:45.584Z,95141.19
2022-12-19T20:56:17.094Z,95142.44
2022-12-19T20:58:45.557Z,95140.97
2022-12-19T21:01:22.348Z,95148.84
2022-12-19T21:03:50.538Z,95146.91
2022-12-19T21:06:21.303Z,95138.22
2022-12-19T21:08:48.887Z,95135.97
2022-12-19T21:11:18.223Z,95133.97
2022-12-19T21:13:46.591Z,95131.19
2022-12-19T21:16:18.049Z,95127.06
2022-12-19T21:18:47.386Z,95122.03
2022-12-19T21:21:18.554Z,95124.75
2022-12-19T21:23:46.611Z,95129.75
2022-12-19T21:26:14.397Z,95129.63
2022-12-19T21:28:42.147Z,95131.91
2022-12-19T21:31:19.208Z,95120.59
2022-12-19T21:33:47.350Z,95121.91
2022-12-19T21:36:21.826Z,95117.81
2022-12-19T21:38:51.149Z,95124.25
2022-12-19T21:41:19.659Z,95125.59
2022-12-19T21:43:54.547Z,95118.69
2022-12-19T21:46:28.023Z,95112.88
2022-12-19T21:48:57.037Z,95121.34
2022-12-19T21:51:26.151Z,95121.09
2022-12-19T21:53:56.055Z,95118.59
2022-12-19T21:56:29.797Z,95120.78
2022-12-19T21:59:00.893Z,95123.34
2022-12-19T22:01:29.278Z,95117.03
2022-12-19T22:04:02.609Z,95113.06
2022-12-19T22:06:32.799Z,95110.03
2022-12-19T22:09:03.244Z,95113.28
2022-12-19T22:11:31.351Z,95110.81
2022-12-19T22:14:00.586Z,95120.91
2022-12-19T22:16:29.476Z,95102.03
2022-12-19T22:18:57.079Z,95100.50
2022-12-19T22:21:25.554Z,95094.72
2022-12-19T22:23:57.775Z,95093.31
2022-12-19T22:26:26.784Z,95093.88
2022-12-19T22:28:56.205Z,95091.38
2022-12-19T22:31:30.427Z,95087.94
2022-12-19T22:34:03.912Z,95078.28
2022-12-19T22:36:32.973Z,95075.31
2022-12-19T22:39:01.397Z,95082.84
2022-12-19T22:41:29.029Z,95080.28
2022-12-19T22:43:56.704Z,95084.00
2022-12-19T22:46:30.492Z,95085.34
2022-12-19T22:49:00.721Z,95082.03
2022-12-19T22:51:30.488Z,95084.16
2022-12-19T22:53:58.234Z,95083.66
2022-12-19T22:56:28.421Z,95078.44
2022-12-19T22:58:59.066Z,95080.09
2022-12-19T23:01:32.745Z,95078.75
2022-12-19T23:04:02.762Z,95073.94
2022-12-19T23:06:32.607Z,95072.91
2022-12-19T23:09:01.468Z,95069.56
2022-12-19T23:11:32.258Z,95072.25
2022-12-19T23:14:02.080Z,95071.31
2022-12-19T23:16:29.785Z,95072.34
2022-12-19T23:18:57.748Z,95059.97
2022-12-19T23:21:26.542Z,95061.03
2022-12-19T23:23:55.470Z,95070.88
2022-12-19T23:26:28.730Z,95060.63
2022-12-19T23:29:00.736Z,95055.63
2022-12-19T23:31:29.296Z,95056.25
2022-12-19T23:33:58.062Z,95068.53
2022-12-19T23:37:08.894Z,95067.56
2022-12-19T23:39:14.148Z,95059.19
2022-12-19T23:41:41.591Z,95053.69
2022-12-19T23:44:10.342Z,95059.75
2022-12-19T23:46:38.401Z,95054.22
2022-12-19T23:49:06.308Z,95059.41
2022-12-19T23:51:33.629Z,95058.22
2022-12-19T23:54:01.272Z,95057.56
2022-12-19T23:56:30.994Z,95053.56
2022-12-19T23:58:59.122Z,95057.69
